Time;durP1;ratioP1;P1;durP2;ratioP2;P2;SDS_P1;SDS_P2;PMS_P1;PMS_P2;Temp;Humidity;BMP_temperature;BMP_pressure;BME280_temperature;BME280_humidity;BME280_pressure;Samples;Min_cycle;Max_cycle;Signal;HPM_P1;HPM_P2
2022/10/30 00:00:04;;;;;;;6.55;4.65;;;;;;;22.35;42.47;95702.78;5022602;28;20520;-63
2022/10/30 00:02:29;;;;;;;7.30;5.00;;;;;;;22.33;42.56;95708.72;4988061;28;20060;-62
2022/10/30 00:04:55;;;;;;;7.75;5.30;;;;;;;22.33;42.26;95697.81;5005127;28;20045;-63
2022/10/30 00:07:20;;;;;;;7.13;5.13;;;;;;;21.41;42.29;95572.78;5023307;28;20057;-62
2022/10/30 00:09:45;;;;;;;7.22;4.90;;;;;;;22.31;42.44;95697.53;5024006;28;20037;-64
2022/10/30 00:12:11;;;;;;;7.47;5.22;;;;;;;21.76;42.51;95630.38;5025089;28;20076;-62
2022/10/30 00:14:36;;;;;;;7.15;5.18;;;;;;;22.30;42.29;95696.06;5026374;28;20041;-62
2022/10/30 00:17:02;;;;;;;7.40;5.10;;;;;;;22.30;42.35;95701.50;5026262;28;20052;-62
2022/10/30 00:19:27;;;;;;;7.20;5.13;;;;;;;22.28;42.45;95697.78;5026548;28;20034;-65
2022/10/30 00:21:53;;;;;;;6.50;4.70;;;;;;;20.82;42.20;95488.84;5008591;28;20119;-64
2022/10/30 00:24:18;;;;;;;7.30;5.18;;;;;;;22.27;42.51;95702.47;5008312;28;20112;-61
2022/10/30 00:26:44;;;;;;;8.45;5.40;;;;;;;22.00;42.36;95656.00;5025187;28;20049;-62
2022/10/30 00:29:09;;;;;;;6.57;4.70;;;;;;;22.27;42.27;95697.03;5026409;28;20053;-62
2022/10/30 00:31:35;;;;;;;6.82;5.15;;;;;;;22.24;42.49;95698.00;5025496;28;20037;-62
2022/10/30 00:34:00;;;;;;;6.65;5.03;;;;;;;20.58;42.39;95458.50;4992042;28;20033;-62
2022/10/30 00:36:25;;;;;;;6.68;5.20;;;;;;;22.17;42.37;95687.53;5025508;28;20045;-61
2022/10/30 00:38:51;;;;;;;6.97;4.82;;;;;;;22.21;42.65;95698.97;5023971;28;20176;-64
2022/10/30 00:41:19;;;;;;;7.38;5.05;;;;;;;22.24;42.49;95698.00;5023867;28;20046;-62
2022/10/30 00:43:44;;;;;;;7.13;5.13;;;;;;;22.21;42.41;95692.78;5026884;28;20037;-61
2022/10/30 00:46:36;;;;;;;6.45;4.70;;;;;;;22.19;42.34;95695.94;5025814;28;20037;-61
2022/10/30 00:49:05;;;;;;;5.53;4.40;;;;;;;22.20;42.63;95697.44;5002893;28;20060;-61
2022/10/30 00:51:30;;;;;;;7.93;5.05;;;;;;;20.82;42.46;95486.13;5009177;28;20060;-62
2022/10/30 00:53:57;;;;;;;7.45;5.20;;;;;;;22.20;42.31;95697.44;5025627;28;20041;-64
2022/10/30 00:56:22;;;;;;;7.15;4.80;;;;;;;22.19;42.59;95690.50;5008004;28;20049;-62
2022/10/30 00:59:08;;;;;;;7.10;4.70;;;;;;;22.05;42.39;95696.84;4991220;28;20030;-62
2022/10/30 01:01:36;;;;;;;5.60;4.28;;;;;;;22.18;42.54;95686.31;4990843;28;20037;-64
2022/10/30 01:04:02;;;;;;;6.95;4.68;;;;;;;22.16;42.59;95679.84;5007253;28;20033;-63
2022/10/30 01:06:28;;;;;;;5.78;4.50;;;;;;;21.65;42.20;95608.56;5025611;28;20048;-64
2022/10/30 01:08:53;;;;;;;6.93;5.00;;;;;;;22.17;42.82;95708.56;5007672;28;20029;-62
2022/10/30 01:11:18;;;;;;;6.47;4.43;;;;;;;22.15;42.30;95673.69;5007041;28;20045;-63
2022/10/30 01:13:44;;;;;;;6.05;4.57;;;;;;;22.09;42.46;95664.75;5007605;28;20033;-61
2022/10/30 01:16:34;;;;;;;6.88;5.00;;;;;;;22.14;42.13;95666.75;4991243;28;20120;-62
2022/10/30 01:19:02;;;;;;;;;;;;;;;22.14;42.45;95661.31;5025568;28;20029;-63
2022/10/30 01:21:39;;;;;;;5.30;3.92;;;;;;;20.07;42.33;95355.50;5025107;28;19924;-63
2022/10/30 01:24:13;;;;;;;7.03;4.53;;;;;;;22.10;42.53;95655.34;5008069;28;20525;-62
2022/10/30 01:26:44;;;;;;;6.00;4.60;;;;;;;22.10;42.67;95649.16;5023119;28;20095;-62
2022/10/30 01:29:55;;;;;;;5.90;4.72;;;;;;;22.12;42.32;95652.91;5024698;28;20029;-63
2022/10/30 01:32:40;;;;;;;5.70;4.32;;;;;;;22.09;42.47;95651.16;4963235;28;20189;-63
2022/10/30 01:36:03;;;;;;;5.75;4.35;;;;;;;22.10;42.67;95655.34;4990446;28;20037;-62
2022/10/30 01:38:35;;;;;;;5.50;4.30;;;;;;;22.04;42.35;95651.84;4929516;29;20147;-62
2022/10/30 01:41:00;;;;;;;5.88;4.50;;;;;;;22.08;42.49;95659.78;4909068;29;20039;-64
2022/10/30 01:43:25;;;;;;;5.78;4.38;;;;;;;20.46;42.34;95413.50;4939376;28;20048;-63
2022/10/30 01:45:54;;;;;;;6.82;4.50;;;;;;;20.72;42.32;95446.84;5024723;28;20036;-64
2022/10/30 01:48:42;;;;;;;6.13;4.05;;;;;;;22.06;42.58;95648.63;5025075;28;20678;-62
2022/10/30 01:51:10;;;;;;;5.97;4.30;;;;;;;22.07;42.61;95656.31;5008195;28;20037;-65
2022/10/30 01:53:57;;;;;;;6.85;4.50;;;;;;;20.92;42.55;95476.59;5016729;28;20030;-64
2022/10/30 01:56:50;;;;;;;6.05;4.50;;;;;;;22.05;42.40;95642.44;5005843;28;20054;-63
2022/10/30 01:59:23;;;;;;;6.10;4.38;;;;;;;22.05;42.42;95647.88;4985604;28;20045;-62
2022/10/30 02:01:48;;;;;;;5.95;4.30;;;;;;;22.02;42.66;95654.31;4988801;28;20105;-62
2022/10/30 02:04:13;;;;;;;5.25;4.15;;;;;;;22.05;42.58;95647.16;5024346;28;20033;-62
2022/10/30 02:06:39;;;;;;;5.53;4.05;;;;;;;20.96;42.45;95498.84;5009301;28;20120;-63
2022/10/30 02:09:04;;;;;;;6.57;4.60;;;;;;;21.85;42.69;95632.91;5010112;28;20037;-63
2022/10/30 02:11:30;;;;;;;7.28;4.40;;;;;;;22.03;42.55;95639.47;5004700;28;20128;-63
2022/10/30 02:13:56;;;;;;;5.35;4.40;;;;;;;21.99;42.60;95638.94;4974661;28;20179;-63
2022/10/30 02:16:22;;;;;;;5.72;3.95;;;;;;;21.93;42.64;95630.00;4993564;28;20049;-65
2022/10/30 02:18:47;;;;;;;6.10;4.32;;;;;;;21.90;42.46;95618.59;5003844;28;20561;-63
2022/10/30 02:21:12;;;;;;;7.20;4.63;;;;;;;21.75;42.61;95602.47;5011441;28;20049;-64
2022/10/30 02:23:38;;;;;;;5.40;4.30;;;;;;;22.00;42.62;95626.84;5005861;28;20052;-64
2022/10/30 02:26:04;;;;;;;6.30;4.50;;;;;;;21.99;42.57;95638.94;4997630;28;20651;-63
2022/10/30 02:28:29;;;;;;;6.40;4.55;;;;;;;22.00;42.57;95635.00;5011579;28;20037;-63
2022/10/30 02:30:54;;;;;;;6.95;4.55;;;;;;;21.99;42.37;95641.66;4982455;28;20719;-62
2022/10/30 02:33:20;;;;;;;6.75;4.68;;;;;;;21.97;42.78;95635.97;4991235;28;20378;-63
2022/10/30 02:35:45;;;;;;;6.38;4.63;;;;;;;21.98;42.44;95637.44;4999912;28;20038;-63
2022/10/30 02:38:11;;;;;;;6.25;4.70;;;;;;;21.98;42.58;95632.00;5003779;28;20512;-65
2022/10/30 02:40:36;;;;;;;5.28;4.05;;;;;;;21.96;42.50;95634.47;5023299;28;20044;-62
2022/10/30 02:43:02;;;;;;;5.20;4.22;;;;;;;21.96;42.64;95633.75;5005758;28;20040;-63
2022/10/30 02:45:27;;;;;;;6.22;4.63;;;;;;;21.72;42.52;95597.22;4999968;28;20057;-63
2022/10/30 02:47:53;;;;;;;5.05;4.03;;;;;;;20.77;42.41;95460.44;5008492;28;20057;-63
2022/10/30 02:50:18;;;;;;;6.00;4.22;;;;;;;21.76;42.81;95624.94;5011078;28;20577;-62
2022/10/30 02:52:43;;;;;;;6.43;4.15;;;;;;;20.55;42.41;95422.25;5002126;28;20520;-62
2022/10/30 02:55:09;;;;;;;5.90;4.50;;;;;;;21.72;42.71;95602.66;5020785;28;20258;-63
2022/10/30 02:57:34;;;;;;;5.80;4.30;;;;;;;21.92;42.63;95643.34;4987692;28;20050;-63
2022/10/30 03:00:00;;;;;;;6.03;4.50;;;;;;;21.92;42.64;95633.94;5001133;28;20069;-64
2022/10/30 03:02:25;;;;;;;6.95;4.68;;;;;;;21.93;42.69;95646.31;5012101;28;20449;-63
2022/10/30 03:04:51;;;;;;;6.35;4.53;;;;;;;21.94;42.72;95644.34;5002743;28;20120;-63
2022/10/30 03:07:16;;;;;;;5.30;3.95;;;;;;;21.51;42.63;95582.28;5010274;28;20036;-62
2022/10/30 03:09:42;;;;;;;7.13;4.80;;;;;;;21.78;42.29;95687.72;4988652;28;20042;-63
2022/10/30 03:12:07;;;;;;;5.68;4.30;;;;;;;21.68;42.61;95618.47;5004767;28;20728;-63
2022/10/30 03:14:33;;;;;;;6.43;4.63;;;;;;;20.81;42.49;95487.38;5002249;28;20053;-64
2022/10/30 03:16:58;;;;;;;7.05;4.43;;;;;;;21.91;42.60;95656.19;5003301;28;20101;-63
2022/10/30 03:19:23;;;;;;;5.95;4.35;;;;;;;21.56;42.59;95606.03;4987320;28;20046;-63
2022/10/30 03:21:49;;;;;;;6.32;4.60;;;;;;;21.90;42.72;95659.38;4986898;28;20065;-64
2022/10/30 03:24:14;;;;;;;6.22;4.40;;;;;;;21.49;42.70;95601.78;4977726;28;20080;-63
2022/10/30 03:26:40;;;;;;;5.60;4.80;;;;;;;21.89;42.64;95666.06;4984003;28;20046;-64
2022/10/30 03:29:05;;;;;;;6.25;4.35;;;;;;;21.78;42.63;95647.72;5015911;28;20045;-62
2022/10/30 03:31:31;;;;;;;5.95;4.20;;;;;;;21.76;42.56;95635.81;4988630;28;20088;-63
2022/10/30 03:33:57;;;;;;;6.18;4.60;;;;;;;21.87;42.78;95652.19;5008299;28;20030;-63
2022/10/30 03:36:23;;;;;;;6.97;5.05;;;;;;;21.88;42.56;95648.25;5013610;28;20054;-62
2022/10/30 03:38:49;;;;;;;6.30;4.43;;;;;;;20.76;42.57;95490.75;4977241;28;20168;-63
2022/10/30 03:41:14;;;;;;;5.40;4.20;;;;;;;21.87;42.50;95652.19;5008113;28;20081;-62
2022/10/30 03:43:39;;;;;;;5.82;4.80;;;;;;;21.84;42.80;95658.59;5012331;28;20030;-64
2022/10/30 03:46:05;;;;;;;6.68;4.32;;;;;;;21.87;42.56;95652.19;5007622;28;20048;-63
2022/10/30 03:48:30;;;;;;;5.25;3.90;;;;;;;21.38;42.50;95603.63;5007388;28;20038;-63
2022/10/30 03:50:56;;;;;;;5.90;4.20;;;;;;;21.86;42.57;95646.03;5008537;28;20453;-65
2022/10/30 03:53:24;;;;;;;5.97;4.05;;;;;;;21.84;42.65;95648.50;5006580;28;20045;-62
2022/10/30 03:55:50;;;;;;;5.75;4.25;;;;;;;21.84;42.72;95672.19;5005114;28;20080;-62
2022/10/30 03:58:16;;;;;;;5.72;4.43;;;;;;;21.84;42.58;95650.44;5007387;28;20422;-63
2022/10/30 04:00:41;;;;;;;6.10;4.53;;;;;;;21.82;43.20;95639.31;5006283;28;20565;-64
2022/10/30 04:03:07;;;;;;;6.20;4.22;;;;;;;21.68;42.75;95640.22;5006541;28;20410;-63
2022/10/30 04:05:33;;;;;;;6.25;4.60;;;;;;;21.83;42.91;95695.19;5006112;28;20041;-63
2022/10/30 04:08:00;;;;;;;5.95;4.15;;;;;;;21.67;42.66;95622.41;5007189;28;20057;-61
2022/10/30 04:10:25;;;;;;;5.53;3.97;;;;;;;21.77;42.49;95615.56;4972899;28;20045;-62
2022/10/30 04:12:51;;;;;;;4.97;4.20;;;;;;;21.30;42.66;95553.69;4988255;28;20081;-63
2022/10/30 04:15:17;;;;;;;6.10;4.68;;;;;;;21.82;42.59;95633.88;5005651;28;20548;-62
2022/10/30 04:17:49;;;;;;;5.65;3.90;;;;;;;20.24;42.48;95399.75;5006161;28;20046;-62
2022/10/30 04:20:15;;;;;;;5.20;3.80;;;;;;;19.53;42.22;95298.00;4972187;28;20088;-63
2022/10/30 04:22:40;;;;;;;6.03;3.83;;;;;;;21.79;42.46;95635.59;4992527;28;20025;-64
2022/10/30 04:25:06;;;;;;;6.05;3.92;;;;;;;21.79;42.69;95623.97;4972286;28;20042;-64
2022/10/30 04:27:41;;;;;;;5.32;4.03;;;;;;;21.80;42.37;95625.47;5005451;28;20046;-63
2022/10/30 04:30:08;;;;;;;6.28;4.05;;;;;;;21.87;42.52;95627.72;4956728;28;20109;-63
2022/10/30 04:32:33;;;;;;;5.68;4.38;;;;;;;21.92;42.25;95631.22;4982028;28;20049;-63
2022/10/30 04:34:58;;;;;;;5.38;4.30;;;;;;;21.98;42.46;95637.44;4987562;28;20046;-62
2022/10/30 04:37:24;;;;;;;5.72;3.88;;;;;;;21.86;42.41;95618.09;4971795;28;20037;-63
2022/10/30 04:39:49;;;;;;;6.63;4.50;;;;;;;21.92;42.82;95639.38;5003850;28;20061;-63
2022/10/30 04:42:15;;;;;;;6.10;4.22;;;;;;;21.90;43.28;95640.34;5007672;28;20515;-64
2022/10/30 04:44:40;;;;;;;5.50;4.15;;;;;;;21.82;42.80;95639.31;5007110;28;20450;-64
2022/10/30 04:47:06;;;;;;;4.72;3.75;;;;;;;21.74;42.88;95616.53;5025583;28;20053;-66
2022/10/30 04:49:31;;;;;;;6.10;4.18;;;;;;;21.91;43.07;95652.72;5025048;28;20037;-62
2022/10/30 04:51:56;;;;;;;5.30;3.85;;;;;;;20.94;42.82;95506.72;5025480;28;20030;-61
2022/10/30 04:54:22;;;;;;;4.80;3.70;;;;;;;21.90;43.10;95645.78;5025080;28;20494;-63
2022/10/30 04:56:47;;;;;;;4.53;3.97;;;;;;;21.89;43.18;95649.75;5023777;28;20057;-60
2022/10/30 04:59:13;;;;;;;4.72;3.95;;;;;;;21.48;43.00;95588.69;5024415;28;20068;-63
2022/10/30 05:01:38;;;;;;;5.80;4.07;;;;;;;21.86;43.02;95640.59;5006834;28;20044;-64
2022/10/30 05:04:04;;;;;;;5.30;3.60;;;;;;;21.65;43.02;95603.84;5023668;28;20080;-63
2022/10/30 05:06:29;;;;;;;5.05;3.95;;;;;;;21.91;43.30;95652.72;5006092;28;20468;-63
2022/10/30 05:08:55;;;;;;;5.18;3.80;;;;;;;21.40;43.12;95593.00;4974383;28;20048;-63
2022/10/30 05:11:20;;;;;;;5.60;3.85;;;;;;;21.93;43.09;95657.19;5007120;28;20038;-64
2022/10/30 05:13:46;;;;;;;6.00;3.95;;;;;;;21.93;43.00;95661.91;5024815;28;20565;-63
2022/10/30 05:16:11;;;;;;;5.63;3.88;;;;;;;21.84;43.00;95650.44;5007118;28;20064;-62
2022/10/30 05:18:37;;;;;;;5.57;4.15;;;;;;;21.66;43.08;95620.94;5023111;28;20214;-61
2022/10/30 05:21:02;;;;;;;5.78;3.97;;;;;;;21.94;43.03;95658.69;5024411;28;20045;-62
2022/10/30 05:23:28;;;;;;;6.88;4.10;;;;;;;21.89;43.17;95655.19;5024405;28;20087;-63
2022/10/30 05:25:53;;;;;;;4.50;3.65;;;;;;;21.04;43.03;95523.09;5023396;28;20060;-62
2022/10/30 05:28:19;;;;;;;5.25;3.83;;;;;;;22.02;43.00;95659.75;5024208;28;20025;-63
2022/10/30 05:30:44;;;;;;;5.22;3.60;;;;;;;21.93;43.13;95651.75;4989911;28;20052;-64
2022/10/30 05:33:10;;;;;;;5.65;4.18;;;;;;;21.95;42.95;95660.19;5024324;28;20053;-64
2022/10/30 05:35:36;;;;;;;4.75;3.63;;;;;;;22.00;43.05;95688.63;5006056;28;20037;-63
2022/10/30 05:38:02;;;;;;;5.68;4.03;;;;;;;21.98;43.06;95691.84;5006486;28;20041;-62
2022/10/30 05:40:28;;;;;;;5.03;3.88;;;;;;;22.00;43.05;95662.22;5006122;28;20507;-64
2022/10/30 05:42:53;;;;;;;4.55;3.83;;;;;;;22.11;42.77;95661.53;5025398;28;20472;-60
2022/10/30 05:45:19;;;;;;;6.68;4.30;;;;;;;22.10;42.38;95652.63;5024598;28;20052;-64
2022/10/30 05:47:56;;;;;;;5.38;4.35;;;;;;;22.06;42.64;95671.16;5024310;28;20556;-63
2022/10/30 05:50:21;;;;;;;5.18;4.10;;;;;;;22.09;42.35;95659.31;5024749;28;20037;-62
2022/10/30 05:52:47;;;;;;;5.38;4.00;;;;;;;21.78;42.59;95615.09;5024544;28;20107;-62
2022/10/30 05:55:12;;;;;;;4.60;3.47;;;;;;;22.13;42.08;95659.81;5006614;28;20041;-61
2022/10/30 05:57:38;;;;;;;5.80;4.10;;;;;;;22.14;42.45;95650.41;5023676;28;20041;-62
2022/10/30 06:00:04;;;;;;;5.03;3.72;;;;;;;22.21;42.53;95660.91;4989669;28;20048;-62
2022/10/30 06:02:29;;;;;;;5.85;4.10;;;;;;;22.23;42.28;95652.97;5006630;28;20037;-62
2022/10/30 06:04:54;;;;;;;4.68;3.58;;;;;;;22.24;42.31;95651.75;5023936;28;20413;-64
2022/10/30 06:07:20;;;;;;;5.88;4.22;;;;;;;22.26;42.09;95654.72;5004929;28;20033;-63
2022/10/30 06:09:45;;;;;;;5.53;3.90;;;;;;;22.31;41.98;95654.00;5024443;28;20053;-61
2022/10/30 06:12:11;;;;;;;6.03;3.80;;;;;;;19.98;41.62;95275.56;5023560;28;20037;-61
2022/10/30 06:14:36;;;;;;;4.95;3.92;;;;;;;22.50;41.58;95650.41;5005395;28;20438;-62
2022/10/30 06:17:02;;;;;;;5.88;3.90;;;;;;;22.06;41.61;95633.06;5023311;28;20054;-62
2022/10/30 06:19:27;;;;;;;5.00;3.78;;;;;;;22.42;41.88;95664.97;4989740;28;20100;-62
2022/10/30 06:21:53;;;;;;;5.40;4.30;;;;;;;22.45;41.65;95650.38;5023175;28;20049;-62
2022/10/30 06:24:19;;;;;;;6.15;4.00;;;;;;;22.50;41.46;95655.84;5003119;28;20057;-62
2022/10/30 06:26:44;;;;;;;5.05;4.15;;;;;;;22.23;41.49;95619.59;4986225;28;20053;-62
2022/10/30 06:29:10;;;;;;;6.93;4.28;;;;;;;22.51;41.25;95659.28;5018569;28;20040;-62
2022/10/30 06:31:35;;;;;;;5.50;4.25;;;;;;;22.58;40.97;95637.06;5005725;28;20554;-64
2022/10/30 06:34:00;;;;;;;6.55;4.57;;;;;;;22.72;41.27;95682.41;4990121;28;20516;-64
2022/10/30 06:36:26;;;;;;;5.50;4.15;;;;;;;22.65;42.16;95666.56;5022486;28;20047;-61
2022/10/30 06:38:51;;;;;;;7.47;4.70;;;;;;;22.62;43.26;95672.97;5023378;28;20477;-63
2022/10/30 06:41:17;;;;;;;5.88;4.40;;;;;;;22.63;43.19;95666.28;5022801;28;20041;-61
2022/10/30 06:43:42;;;;;;;7.22;4.32;;;;;;;22.73;44.89;95678.47;5022856;28;20044;-63
2022/10/30 06:46:08;;;;;;;8.77;4.38;;;;;;;22.76;44.20;95666.59;5024359;28;20807;-62
2022/10/30 06:48:33;;;;;;;6.28;4.18;;;;;;;23.05;44.14;95667.72;5013357;28;20053;-63
2022/10/30 06:50:59;;;;;;;6.25;4.10;;;;;;;23.23;44.42;95667.28;5017937;28;20073;-64
2022/10/30 06:53:25;;;;;;;8.25;5.47;;;;;;;23.39;43.00;95678.22;5023632;28;20050;-62
2022/10/30 06:55:55;;;;;;;8.73;6.00;;;;;;;23.27;43.30;95684.13;4989344;28;20505;-63
2022/10/30 06:58:20;;;;;;;7.72;5.53;;;;;;;23.35;42.92;95679.69;4992352;28;20523;-62
2022/10/30 07:00:45;;;;;;;6.93;5.60;;;;;;;23.49;42.64;95678.72;5028995;28;20052;-63
2022/10/30 07:03:11;;;;;;;7.47;5.57;;;;;;;23.50;42.64;95669.31;5023657;28;20045;-62
2022/10/30 07:05:36;;;;;;;6.95;5.65;;;;;;;23.83;41.74;95669.34;5011936;28;20041;-63
2022/10/30 07:08:02;;;;;;;8.63;6.35;;;;;;;23.87;42.08;95682.25;5020139;28;20143;-62
2022/10/30 07:10:27;;;;;;;8.13;5.85;;;;;;;23.76;41.86;95675.31;5003009;28;20147;-62
2022/10/30 07:12:54;;;;;;;8.82;6.07;;;;;;;23.64;42.12;95673.81;5004075;28;20060;-67
2022/10/30 07:15:19;;;;;;;7.05;5.68;;;;;;;23.68;42.07;95674.31;4990532;28;20033;-68
2022/10/30 07:18:00;;;;;;;8.38;6.07;;;;;;;23.60;42.08;95656.91;5024439;28;20076;-62
2022/10/30 07:20:27;;;;;;;7.88;6.07;;;;;;;21.41;41.90;95298.38;5028013;28;20049;-68
2022/10/30 07:22:52;;;;;;;7.32;6.05;;;;;;;23.88;41.47;95661.16;5009629;28;20099;-62
2022/10/30 07:25:18;;;;;;;8.32;5.63;;;;;;;23.01;41.31;95492.88;5025658;28;21168;-61
2022/10/30 07:27:44;;;;;;;7.35;5.63;;;;;;;23.95;41.08;95655.94;5024051;28;20406;-61
2022/10/30 07:30:15;;;;;;;7.68;6.13;;;;;;;24.01;41.57;95659.41;5008603;28;20072;-61
2022/10/30 07:32:41;;;;;;;7.28;5.75;;;;;;;23.85;41.51;95647.78;5008845;28;20074;-61
2022/10/30 07:35:07;;;;;;;7.22;6.03;;;;;;;24.02;41.50;95649.22;5026003;28;20124;-62
2022/10/30 07:37:32;;;;;;;7.50;5.97;;;;;;;23.97;41.33;95644.53;5006252;28;20167;-66
2022/10/30 07:39:58;;;;;;;7.25;5.45;;;;;;;23.90;41.50;95681.25;5010027;28;20057;-66
2022/10/30 07:42:23;;;;;;;7.70;5.85;;;;;;;22.29;41.28;95444.25;5009770;28;20121;-67
2022/10/30 07:44:48;;;;;;;8.93;6.10;;;;;;;22.56;41.37;95454.47;5009295;28;20049;-62
2022/10/30 07:47:14;;;;;;;8.35;6.32;;;;;;;23.86;41.86;95655.47;5027643;28;20067;-66
2022/10/30 07:49:39;;;;;;;8.52;6.30;;;;;;;23.77;41.88;95650.25;5009420;28;20033;-66
2022/10/30 07:52:05;;;;;;;8.07;6.20;;;;;;;23.80;41.74;95643.06;5028064;28;20044;-63
2022/10/30 07:54:30;;;;;;;8.18;5.97;;;;;;;23.81;41.51;95639.09;5026776;28;20049;-65
2022/10/30 07:56:57;;;;;;;8.07;6.07;;;;;;;23.77;41.32;95665.88;5025965;28;20042;-62
2022/10/30 07:59:23;;;;;;;7.68;6.28;;;;;;;24.28;40.77;95634.06;5005645;28;20053;-64
2022/10/30 08:01:48;;;;;;;8.05;6.47;;;;;;;24.24;41.00;95625.38;5026127;28;20516;-62
2022/10/30 08:04:14;;;;;;;9.00;6.70;;;;;;;23.04;40.81;95448.31;5009552;28;20033;-65
2022/10/30 08:06:39;;;;;;;8.38;6.30;;;;;;;24.10;41.26;95659.16;5008147;28;20049;-64
2022/10/30 08:09:05;;;;;;;7.88;5.88;;;;;;;24.09;40.99;95622.19;5025987;28;20034;-64
2022/10/30 08:11:30;;;;;;;9.60;6.75;;;;;;;24.00;41.08;95614.25;5008174;28;20037;-63
2022/10/30 08:13:56;;;;;;;8.55;6.13;;;;;;;23.99;40.78;95631.13;5016256;28;20042;-63
2022/10/30 08:16:21;;;;;;;7.60;6.35;;;;;;;24.01;41.16;95613.03;5021326;28;20092;-65
2022/10/30 08:18:47;;;;;;;10.35;6.32;;;;;;;23.99;41.16;95618.25;5004983;28;20057;-63
2022/10/30 08:21:12;;;;;;;8.85;6.50;;;;;;;24.03;41.32;95605.09;5005979;28;20090;-63
2022/10/30 08:23:38;;;;;;;8.18;6.00;;;;;;;24.17;40.54;95650.47;5025379;28;20434;-64
2022/10/30 08:26:04;;;;;;;8.95;6.47;;;;;;;24.16;40.51;95605.31;5008712;28;20056;-65
2022/10/30 08:28:29;;;;;;;9.48;6.32;;;;;;;23.35;40.64;95499.06;5007078;28;20129;-64
2022/10/30 08:30:56;;;;;;;8.27;6.35;;;;;;;24.31;40.15;95605.78;5004007;28;20787;-63
2022/10/30 08:33:21;;;;;;;9.25;6.80;;;;;;;24.25;40.03;95605.03;4994685;28;20041;-65
2022/10/30 08:35:51;;;;;;;7.40;6.00;;;;;;;24.46;39.88;95611.72;5019750;28;20462;-64
2022/10/30 08:38:17;;;;;;;8.45;6.43;;;;;;;23.19;40.10;95416.09;4987891;28;20080;-63
2022/10/30 08:40:42;;;;;;;9.13;6.53;;;;;;;24.40;40.36;95635.56;5005403;28;20446;-62
2022/10/30 08:43:08;;;;;;;8.55;6.22;;;;;;;24.03;40.68;95553.25;5007660;28;20846;-62
2022/10/30 08:45:33;;;;;;;9.20;6.85;;;;;;;23.34;40.88;95449.25;4994650;28;20046;-64
2022/10/30 08:47:59;;;;;;;7.85;6.53;;;;;;;23.00;41.38;95404.25;5000579;28;20568;-64
2022/10/30 08:50:25;;;;;;;9.43;6.43;;;;;;;24.59;41.07;95609.19;5012306;28;20072;-62
2022/10/30 08:52:51;;;;;;;8.52;5.90;;;;;;;24.53;40.95;95605.72;5014381;28;20047;-62
2022/10/30 08:55:16;;;;;;;8.82;6.95;;;;;;;24.76;40.05;95596.19;5030841;28;20041;-62
2022/10/30 08:57:41;;;;;;;9.68;6.43;;;;;;;24.63;40.41;95615.84;5016905;28;20501;-63
2022/10/30 09:00:07;;;;;;;11.20;6.82;;;;;;;24.68;40.21;95595.22;4997714;28;20042;-64
2022/10/30 09:02:34;;;;;;;9.88;6.68;;;;;;;24.79;40.63;95611.56;5022500;28;20481;-62
2022/10/30 09:04:59;;;;;;;9.52;7.20;;;;;;;24.48;40.20;95552.63;5006094;28;20068;-64
2022/10/30 09:07:25;;;;;;;9.98;6.07;;;;;;;24.66;40.22;95586.78;5024636;28;20482;-65
2022/10/30 09:09:50;;;;;;;9.40;6.60;;;;;;;23.30;39.73;95394.25;4974327;28;20978;-63
2022/10/30 09:12:16;;;;;;;8.80;6.72;;;;;;;24.74;40.19;95582.28;5007179;28;20042;-61
2022/10/30 09:14:41;;;;;;;11.80;6.38;;;;;;;24.72;40.10;95568.38;5023759;28;20045;-65
2022/10/30 09:17:06;;;;;;;10.93;6.43;;;;;;;24.80;39.79;95574.78;5025108;28;20107;-64
2022/10/30 09:19:32;;;;;;;10.30;7.40;;;;;;;24.53;40.01;95575.69;5006768;28;20476;-63
2022/10/30 09:21:57;;;;;;;11.75;7.28;;;;;;;24.55;40.03;95578.66;5006696;28;20068;-62
2022/10/30 09:24:23;;;;;;;12.00;7.00;;;;;;;24.72;39.98;95573.84;5024801;28;20395;-63
2022/10/30 09:26:48;;;;;;;11.50;6.57;;;;;;;24.60;40.14;95594.28;5023205;28;20533;-62
2022/10/30 09:29:13;;;;;;;10.00;6.70;;;;;;;24.80;39.92;95580.25;5024233;28;20521;-62
2022/10/30 09:31:39;;;;;;;12.63;7.28;;;;;;;24.75;39.94;95575.56;5024494;28;20533;-63
2022/10/30 09:34:04;;;;;;;10.05;6.30;;;;;;;24.76;40.07;95574.34;5007173;28;20503;-64
2022/10/30 09:36:31;;;;;;;9.85;7.30;;;;;;;24.54;40.01;95596.28;5024511;28;20053;-62
2022/10/30 09:38:57;;;;;;;8.95;6.35;;;;;;;24.26;39.87;95523.88;5024186;28;20049;-63
2022/10/30 09:41:47;;;;;;;9.07;6.57;;;;;;;24.12;40.73;95550.25;5024011;28;20410;-63
2022/10/30 09:44:29;;;;;;;11.70;6.72;;;;;;;24.02;40.56;95529.94;5009408;28;20053;-63
2022/10/30 09:47:01;;;;;;;10.98;6.78;;;;;;;23.93;41.18;95549.31;5024391;28;20030;-63
2022/10/30 09:50:04;;;;;;;9.75;6.50;;;;;;;23.93;41.42;95543.88;4994165;28;20045;-64
2022/10/30 09:53:01;;;;;;;9.77;6.32;;;;;;;23.71;40.88;95518.63;5024004;28;20053;-61
2022/10/30 09:55:56;;;;;;;9.63;5.93;;;;;;;23.66;41.44;95524.06;5009581;28;20053;-63
2022/10/30 09:59:06;;;;;;;8.95;6.70;;;;;;;23.83;41.17;95527.53;5009868;28;20040;-64
2022/10/30 10:01:45;;;;;;;10.43;6.82;;;;;;;23.78;41.55;95528.25;5023968;28;20476;-62
2022/10/30 10:04:29;;;;;;;8.70;6.32;;;;;;;23.71;41.04;95502.25;5005928;28;20037;-62
2022/10/30 10:07:01;;;;;;;8.80;6.70;;;;;;;23.61;41.29;95494.81;4990243;28;20100;-64
2022/10/30 10:09:26;;;;;;;9.65;6.75;;;;;;;23.86;40.95;95517.09;5005442;28;20100;-66
2022/10/30 10:11:57;;;;;;;9.30;6.55;;;;;;;23.95;40.66;95535.91;4973176;28;20049;-63
2022/10/30 10:14:25;;;;;;;8.75;5.95;;;;;;;23.89;40.78;95516.09;5005433;28;20076;-63
2022/10/30 10:16:54;;;;;;;8.75;6.07;;;;;;;23.94;41.15;95496.22;5006245;28;20049;-63
2022/10/30 10:19:34;;;;;;;8.18;5.88;;;;;;;23.98;41.23;95499.44;4990180;28;20088;-63
2022/10/30 10:22:01;;;;;;;10.88;6.57;;;;;;;23.86;41.29;95495.25;5005873;28;20061;-63
2022/10/30 10:24:34;;;;;;;9.25;6.30;;;;;;;22.59;40.82;95284.72;4988891;28;20056;-62
2022/10/30 10:27:04;;;;;;;9.10;6.00;;;;;;;22.92;40.84;95305.19;5005314;28;20041;-61
2022/10/30 10:29:38;;;;;;;9.90;6.57;;;;;;;24.00;40.79;95469.66;5006876;28;20700;-62
2022/10/30 10:32:21;;;;;;;8.65;6.45;;;;;;;23.94;41.13;95482.59;5005835;28;20571;-61
2022/10/30 10:35:17;;;;;;;9.98;6.28;;;;;;;23.89;40.92;95468.97;5007077;28;20034;-62
2022/10/30 10:38:16;;;;;;;8.68;6.50;;;;;;;23.87;41.01;95469.47;4993966;28;20513;-61
2022/10/30 10:41:10;;;;;;;8.47;6.13;;;;;;;23.92;41.47;95463.25;5022688;28;20042;-62
2022/10/30 10:43:57;;;;;;;7.93;6.00;;;;;;;23.91;40.97;95459.03;5023065;28;20054;-60
2022/10/30 10:46:50;;;;;;;8.20;6.40;;;;;;;22.91;40.77;95309.16;4992541;28;20089;-61
2022/10/30 10:49:30;;;;;;;8.63;5.57;;;;;;;23.90;40.68;95451.34;5022509;28;20441;-64
2022/10/30 10:52:01;;;;;;;8.43;5.97;;;;;;;23.87;40.75;95455.84;5023048;28;20081;-61
2022/10/30 10:54:47;;;;;;;8.15;6.30;;;;;;;23.90;41.36;95454.84;4982316;28;20042;-63
2022/10/30 10:57:32;;;;;;;8.13;6.07;;;;;;;23.92;40.93;95440.69;4988834;28;20509;-61
2022/10/30 11:00:05;;;;;;;12.95;6.53;;;;;;;23.94;41.06;95447.13;4988512;28;20048;-62
2022/10/30 11:02:51;;;;;;;8.90;6.05;;;;;;;23.86;41.25;95443.44;4991099;28;20148;-62
2022/10/30 11:05:38;;;;;;;8.63;6.10;;;;;;;23.91;41.02;95431.03;5022744;28;20497;-63
2022/10/30 11:08:14;;;;;;;7.88;5.45;;;;;;;23.94;40.57;95430.75;5005695;28;20037;-62
2022/10/30 11:10:40;;;;;;;9.30;5.82;;;;;;;23.86;40.91;95428.34;5003084;28;20058;-62
2022/10/30 11:13:05;;;;;;;6.43;5.63;;;;;;;23.83;41.08;95423.88;5008977;28;20042;-62
2022/10/30 11:16:04;;;;;;;8.50;5.60;;;;;;;23.88;40.67;95416.41;5022902;28;20526;-64
2022/10/30 11:18:30;;;;;;;7.33;5.70;;;;;;;23.72;40.54;95391.94;5015275;28;20048;-61
2022/10/30 11:21:15;;;;;;;7.45;6.07;;;;;;;23.84;40.62;95415.19;4995487;28;20050;-62
2022/10/30 11:23:41;;;;;;;7.32;5.47;;;;;;;22.97;40.83;95268.31;5001600;28;20515;-64
2022/10/30 11:26:16;;;;;;;8.45;5.72;;;;;;;23.86;40.47;95401.06;4983601;28;20096;-65
2022/10/30 11:29:01;;;;;;;7.45;5.18;;;;;;;22.32;40.79;95176.66;5008388;28;20029;-65
2022/10/30 11:31:29;;;;;;;9.48;5.30;;;;;;;23.84;40.49;95398.06;4999742;28;20038;-60
2022/10/30 11:33:54;;;;;;;6.95;5.38;;;;;;;23.90;40.66;95391.34;5019572;28;20131;-62
2022/10/30 11:36:24;;;;;;;8.40;5.38;;;;;;;23.71;40.17;95360.47;5013116;28;20053;-61
2022/10/30 11:38:50;;;;;;;6.57;4.53;;;;;;;24.02;40.30;95388.06;4988202;28;20053;-61
2022/10/30 11:41:15;;;;;;;7.97;5.10;;;;;;;23.97;40.60;95380.63;5004976;28;20128;-61